sensor_id;sensor_type;location;lat;lon;timestamp;temperature;humidity
69335;SHT31;56477;52.742;15.242;2023-06-26T00:01:51;19.19;78.50
69335;SHT31;56477;52.742;15.242;2023-06-26T00:04:16;19.22;77.85
69335;SHT31;56477;52.742;15.242;2023-06-26T00:06:42;19.26;78.75
69335;SHT31;56477;52.742;15.242;2023-06-26T00:09:08;19.22;78.96
69335;SHT31;56477;52.742;15.242;2023-06-26T00:11:34;19.16;81.01
69335;SHT31;56477;52.742;15.242;2023-06-26T00:14:01;19.04;82.35
69335;SHT31;56477;52.742;15.242;2023-06-26T00:16:27;18.87;83.89
69335;SHT31;56477;52.742;15.242;2023-06-26T00:18:53;18.74;83.84
69335;SHT31;56477;52.742;15.242;2023-06-26T00:21:19;18.61;84.30
69335;SHT31;56477;52.742;15.242;2023-06-26T00:23:45;18.53;84.54
69335;SHT31;56477;52.742;15.242;2023-06-26T00:26:12;18.50;85.30
69335;SHT31;56477;52.742;15.242;2023-06-26T00:28:38;18.45;85.47
69335;SHT31;56477;52.742;15.242;2023-06-26T00:31:04;18.40;85.64
69335;SHT31;56477;52.742;15.242;2023-06-26T00:33:30;18.39;85.35
69335;SHT31;56477;52.742;15.242;2023-06-26T00:35:56;18.33;85.07
69335;SHT31;56477;52.742;15.242;2023-06-26T00:38:21;18.33;84.58
69335;SHT31;56477;52.742;15.242;2023-06-26T00:40:47;18.33;84.94
69335;SHT31;56477;52.742;15.242;2023-06-26T00:43:13;18.25;86.36
69335;SHT31;56477;52.742;15.242;2023-06-26T00:45:39;18.12;87.33
69335;SHT31;56477;52.742;15.242;2023-06-26T00:48:05;18.04;87.57
69335;SHT31;56477;52.742;15.242;2023-06-26T00:50:31;18.02;87.62
69335;SHT31;56477;52.742;15.242;2023-06-26T00:52:57;18.04;87.56
69335;SHT31;56477;52.742;15.242;2023-06-26T00:55:27;17.99;87.39
69335;SHT31;56477;52.742;15.242;2023-06-26T00:57:54;17.94;87.84
69335;SHT31;56477;52.742;15.242;2023-06-26T01:00:20;17.95;87.74
69335;SHT31;56477;52.742;15.242;2023-06-26T01:02:46;18.01;87.74
69335;SHT31;56477;52.742;15.242;2023-06-26T01:05:13;17.98;87.26
69335;SHT31;56477;52.742;15.242;2023-06-26T01:07:48;17.89;87.32
69335;SHT31;56477;52.742;15.242;2023-06-26T01:10:14;17.87;87.51
69335;SHT31;56477;52.742;15.242;2023-06-26T01:12:40;17.78;88.29
69335;SHT31;56477;52.742;15.242;2023-06-26T01:15:07;17.75;88.58
69335;SHT31;56477;52.742;15.242;2023-06-26T01:17:34;17.71;88.72
69335;SHT31;56477;52.742;15.242;2023-06-26T01:20:03;17.77;89.06
69335;SHT31;56477;52.742;15.242;2023-06-26T01:22:41;17.77;88.60
69335;SHT31;56477;52.742;15.242;2023-06-26T01:25:33;17.66;88.91
69335;SHT31;56477;52.742;15.242;2023-06-26T01:28:08;17.58;89.53
69335;SHT31;56477;52.742;15.242;2023-06-26T01:30:37;17.61;89.61
69335;SHT31;56477;52.742;15.242;2023-06-26T01:33:04;17.67;89.28
69335;SHT31;56477;52.742;15.242;2023-06-26T01:35:30;17.63;88.65
69335;SHT31;56477;52.742;15.242;2023-06-26T01:40:38;17.67;89.36
69335;SHT31;56477;52.742;15.242;2023-06-26T01:43:06;17.67;89.04
69335;SHT31;56477;52.742;15.242;2023-06-26T01:45:36;17.66;89.06
69335;SHT31;56477;52.742;15.242;2023-06-26T01:48:04;17.67;89.01
69335;SHT31;56477;52.742;15.242;2023-06-26T01:50:33;17.61;89.41
69335;SHT31;56477;52.742;15.242;2023-06-26T01:53:11;17.50;89.97
69335;SHT31;56477;52.742;15.242;2023-06-26T01:55:47;17.55;90.26
69335;SHT31;56477;52.742;15.242;2023-06-26T01:58:17;17.57;89.96
69335;SHT31;56477;52.742;15.242;2023-06-26T02:00:47;17.58;90.09
69335;SHT31;56477;52.742;15.242;2023-06-26T02:03:13;17.67;90.24
69335;SHT31;56477;52.742;15.242;2023-06-26T02:05:39;17.73;89.98
69335;SHT31;56477;52.742;15.242;2023-06-26T02:08:04;17.73;89.83
69335;SHT31;56477;52.742;15.242;2023-06-26T02:10:31;17.70;90.00
69335;SHT31;56477;52.742;15.242;2023-06-26T02:12:57;17.71;90.19
69335;SHT31;56477;52.742;15.242;2023-06-26T02:15:23;17.71;89.75
69335;SHT31;56477;52.742;15.242;2023-06-26T02:17:49;17.70;89.55
69335;SHT31;56477;52.742;15.242;2023-06-26T02:20:15;17.75;89.55
69335;SHT31;56477;52.742;15.242;2023-06-26T02:22:41;17.75;89.41
69335;SHT31;56477;52.742;15.242;2023-06-26T02:25:09;17.77;89.53
69335;SHT31;56477;52.742;15.242;2023-06-26T02:27:35;17.79;89.47
69335;SHT31;56477;52.742;15.242;2023-06-26T02:30:01;17.79;88.92
69335;SHT31;56477;52.742;15.242;2023-06-26T02:32:27;17.77;88.92
69335;SHT31;56477;52.742;15.242;2023-06-26T02:34:53;17.71;89.40
69335;SHT31;56477;52.742;15.242;2023-06-26T02:37:19;17.67;89.39
69335;SHT31;56477;52.742;15.242;2023-06-26T02:39:45;17.58;90.02
69335;SHT31;56477;52.742;15.242;2023-06-26T02:42:11;17.57;90.13
69335;SHT31;56477;52.742;15.242;2023-06-26T02:44:37;17.61;90.18
69335;SHT31;56477;52.742;15.242;2023-06-26T02:47:03;17.66;90.05
69335;SHT31;56477;52.742;15.242;2023-06-26T02:49:29;17.67;89.64
69335;SHT31;56477;52.742;15.242;2023-06-26T02:51:55;17.70;89.70
69335;SHT31;56477;52.742;15.242;2023-06-26T02:54:21;17.75;89.49
69335;SHT31;56477;52.742;15.242;2023-06-26T02:56:47;17.78;89.47
69335;SHT31;56477;52.742;15.242;2023-06-26T02:59:14;17.79;89.39
69335;SHT31;56477;52.742;15.242;2023-06-26T03:01:39;17.78;89.02
69335;SHT31;56477;52.742;15.242;2023-06-26T03:04:06;17.84;89.12
69335;SHT31;56477;52.742;15.242;2023-06-26T03:06:31;17.87;89.14
69335;SHT31;56477;52.742;15.242;2023-06-26T03:08:57;17.85;88.84
69335;SHT31;56477;52.742;15.242;2023-06-26T03:11:23;17.79;89.67
69335;SHT31;56477;52.742;15.242;2023-06-26T03:13:49;17.71;89.15
69335;SHT31;56477;52.742;15.242;2023-06-26T03:16:15;17.73;86.07
69335;SHT31;56477;52.742;15.242;2023-06-26T03:18:41;17.85;87.44
69335;SHT31;56477;52.742;15.242;2023-06-26T03:21:08;17.91;84.61
69335;SHT31;56477;52.742;15.242;2023-06-26T03:23:35;18.02;84.00
69335;SHT31;56477;52.742;15.242;2023-06-26T03:26:00;18.10;84.08
69335;SHT31;56477;52.742;15.242;2023-06-26T03:28:26;18.13;85.36
69335;SHT31;56477;52.742;15.242;2023-06-26T03:30:52;18.13;85.63
69335;SHT31;56477;52.742;15.242;2023-06-26T03:33:18;18.15;86.20
69335;SHT31;56477;52.742;15.242;2023-06-26T03:35:44;18.18;86.29
69335;SHT31;56477;52.742;15.242;2023-06-26T03:38:10;18.16;83.50
69335;SHT31;56477;52.742;15.242;2023-06-26T03:40:36;18.26;83.92
69335;SHT31;56477;52.742;15.242;2023-06-26T03:43:02;18.36;84.25
69335;SHT31;56477;52.742;15.242;2023-06-26T03:45:28;18.30;85.47
69335;SHT31;56477;52.742;15.242;2023-06-26T03:47:54;18.28;85.59
69335;SHT31;56477;52.742;15.242;2023-06-26T03:50:20;18.19;86.05
69335;SHT31;56477;52.742;15.242;2023-06-26T03:52:46;18.13;86.58
69335;SHT31;56477;52.742;15.242;2023-06-26T03:55:11;18.18;86.52
69335;SHT31;56477;52.742;15.242;2023-06-26T03:57:37;18.24;84.28
69335;SHT31;56477;52.742;15.242;2023-06-26T04:00:04;18.28;81.29
69335;SHT31;56477;52.742;15.242;2023-06-26T04:02:38;18.40;80.05
69335;SHT31;56477;52.742;15.242;2023-06-26T04:05:04;18.49;79.57
69335;SHT31;56477;52.742;15.242;2023-06-26T04:07:31;18.60;76.43
69335;SHT31;56477;52.742;15.242;2023-06-26T04:09:57;18.70;76.68
69335;SHT31;56477;52.742;15.242;2023-06-26T04:12:23;18.83;75.41
69335;SHT31;56477;52.742;15.242;2023-06-26T04:14:49;18.90;75.80
69335;SHT31;56477;52.742;15.242;2023-06-26T04:17:15;18.97;74.87
69335;SHT31;56477;52.742;15.242;2023-06-26T04:19:41;19.01;72.86
69335;SHT31;56477;52.742;15.242;2023-06-26T04:22:07;19.03;71.96
69335;SHT31;56477;52.742;15.242;2023-06-26T04:24:32;19.11;74.41
69335;SHT31;56477;52.742;15.242;2023-06-26T04:26:58;19.15;71.60
69335;SHT31;56477;52.742;15.242;2023-06-26T04:29:27;19.22;73.90
69335;SHT31;56477;52.742;15.242;2023-06-26T04:31:53;19.24;72.40
69335;SHT31;56477;52.742;15.242;2023-06-26T04:34:29;19.35;72.85
69335;SHT31;56477;52.742;15.242;2023-06-26T04:36:58;19.39;72.29
69335;SHT31;56477;52.742;15.242;2023-06-26T04:39:24;19.43;71.21
69335;SHT31;56477;52.742;15.242;2023-06-26T04:41:50;19.45;71.25
69335;SHT31;56477;52.742;15.242;2023-06-26T04:44:16;19.46;70.67
69335;SHT31;56477;52.742;15.242;2023-06-26T04:46:42;19.53;71.29
69335;SHT31;56477;52.742;15.242;2023-06-26T04:49:08;19.56;71.15
69335;SHT31;56477;52.742;15.242;2023-06-26T04:51:35;19.65;71.07
69335;SHT31;56477;52.742;15.242;2023-06-26T04:54:10;19.72;71.07
69335;SHT31;56477;52.742;15.242;2023-06-26T04:56:36;19.72;70.15
69335;SHT31;56477;52.742;15.242;2023-06-26T04:59:02;19.77;69.61
69335;SHT31;56477;52.742;15.242;2023-06-26T05:01:29;19.79;70.11
69335;SHT31;56477;52.742;15.242;2023-06-26T05:03:56;19.87;70.25
69335;SHT31;56477;52.742;15.242;2023-06-26T05:06:22;19.92;70.08
69335;SHT31;56477;52.742;15.242;2023-06-26T05:08:48;19.96;70.18
69335;SHT31;56477;52.742;15.242;2023-06-26T05:11:14;20.03;70.91
69335;SHT31;56477;52.742;15.242;2023-06-26T05:13:40;20.13;70.83
69335;SHT31;56477;52.742;15.242;2023-06-26T05:16:08;20.20;70.78
69335;SHT31;56477;52.742;15.242;2023-06-26T05:18:35;20.21;71.03
69335;SHT31;56477;52.742;15.242;2023-06-26T05:21:02;20.20;71.76
69335;SHT31;56477;52.742;15.242;2023-06-26T05:23:30;20.18;72.45
69335;SHT31;56477;52.742;15.242;2023-06-26T05:25:57;20.25;72.99
69335;SHT31;56477;52.742;15.242;2023-06-26T05:28:24;20.25;73.37
69335;SHT31;56477;52.742;15.242;2023-06-26T05:30:51;20.37;73.25
69335;SHT31;56477;52.742;15.242;2023-06-26T05:33:18;20.45;73.30
69335;SHT31;56477;52.742;15.242;2023-06-26T05:35:45;20.55;73.49
69335;SHT31;56477;52.742;15.242;2023-06-26T05:38:13;20.59;73.73
69335;SHT31;56477;52.742;15.242;2023-06-26T05:40:39;20.65;73.38
69335;SHT31;56477;52.742;15.242;2023-06-26T05:43:06;20.76;72.81
69335;SHT31;56477;52.742;15.242;2023-06-26T05:45:33;20.79;72.88
69335;SHT31;56477;52.742;15.242;2023-06-26T05:47:58;20.88;72.36
69335;SHT31;56477;52.742;15.242;2023-06-26T05:50:25;20.90;72.88
69335;SHT31;56477;52.742;15.242;2023-06-26T05:52:52;21.00;72.32
69335;SHT31;56477;52.742;15.242;2023-06-26T05:55:19;21.10;72.42
69335;SHT31;56477;52.742;15.242;2023-06-26T05:57:47;21.19;71.92
69335;SHT31;56477;52.742;15.242;2023-06-26T06:00:13;21.17;72.02
69335;SHT31;56477;52.742;15.242;2023-06-26T06:02:40;21.24;71.84
69335;SHT31;56477;52.742;15.242;2023-06-26T06:05:07;21.33;71.25
69335;SHT31;56477;52.742;15.242;2023-06-26T06:07:34;21.38;71.01
69335;SHT31;56477;52.742;15.242;2023-06-26T06:10:02;21.50;71.08
69335;SHT31;56477;52.742;15.242;2023-06-26T06:12:28;21.54;70.85
69335;SHT31;56477;52.742;15.242;2023-06-26T06:14:55;21.58;71.16
69335;SHT31;56477;52.742;15.242;2023-06-26T06:17:21;21.75;70.90
69335;SHT31;56477;52.742;15.242;2023-06-26T06:19:48;21.77;69.81
69335;SHT31;56477;52.742;15.242;2023-06-26T06:22:14;21.77;70.32
69335;SHT31;56477;52.742;15.242;2023-06-26T06:24:42;21.84;70.42
69335;SHT31;56477;52.742;15.242;2023-06-26T06:27:08;21.92;70.74
69335;SHT31;56477;52.742;15.242;2023-06-26T06:29:33;21.95;71.07
69335;SHT31;56477;52.742;15.242;2023-06-26T06:31:59;22.12;71.00
69335;SHT31;56477;52.742;15.242;2023-06-26T06:34:25;22.39;69.93
69335;SHT31;56477;52.742;15.242;2023-06-26T06:36:51;22.42;70.41
69335;SHT31;56477;52.742;15.242;2023-06-26T06:39:17;22.47;70.71
69335;SHT31;56477;52.742;15.242;2023-06-26T06:41:43;22.46;71.37
69335;SHT31;56477;52.742;15.242;2023-06-26T06:44:09;22.56;71.47
69335;SHT31;56477;52.742;15.242;2023-06-26T06:46:35;22.80;71.12
69335;SHT31;56477;52.742;15.242;2023-06-26T06:49:01;22.97;71.68
69335;SHT31;56477;52.742;15.242;2023-06-26T06:51:27;23.26;71.02
69335;SHT31;56477;52.742;15.242;2023-06-26T06:53:53;23.48;69.64
69335;SHT31;56477;52.742;15.242;2023-06-26T06:56:19;23.29;69.89
69335;SHT31;56477;52.742;15.242;2023-06-26T06:58:45;23.39;70.48
69335;SHT31;56477;52.742;15.242;2023-06-26T07:01:12;23.45;69.59
69335;SHT31;56477;52.742;15.242;2023-06-26T07:03:39;23.49;70.29
69335;SHT31;56477;52.742;15.242;2023-06-26T07:06:05;23.49;70.23
69335;SHT31;56477;52.742;15.242;2023-06-26T07:08:31;23.48;70.48
69335;SHT31;56477;52.742;15.242;2023-06-26T07:10:58;23.35;71.17
69335;SHT31;56477;52.742;15.242;2023-06-26T07:13:23;23.49;70.80
69335;SHT31;56477;52.742;15.242;2023-06-26T07:15:49;23.58;69.50
69335;SHT31;56477;52.742;15.242;2023-06-26T07:18:15;23.79;68.31
69335;SHT31;56477;52.742;15.242;2023-06-26T07:20:41;23.90;67.39
69335;SHT31;56477;52.742;15.242;2023-06-26T07:23:07;24.11;68.03
69335;SHT31;56477;52.742;15.242;2023-06-26T07:25:34;24.35;67.14
69335;SHT31;56477;52.742;15.242;2023-06-26T07:28:00;24.76;67.23
69335;SHT31;56477;52.742;15.242;2023-06-26T07:30:26;25.37;65.14
69335;SHT31;56477;52.742;15.242;2023-06-26T07:32:52;25.95;62.55
69335;SHT31;56477;52.742;15.242;2023-06-26T07:35:18;27.00;59.44
69335;SHT31;56477;52.742;15.242;2023-06-26T07:37:44;27.77;56.89
69335;SHT31;56477;52.742;15.242;2023-06-26T07:40:10;28.37;55.41
69335;SHT31;56477;52.742;15.242;2023-06-26T07:42:36;28.66;54.75
69335;SHT31;56477;52.742;15.242;2023-06-26T07:45:03;29.03;54.91
69335;SHT31;56477;52.742;15.242;2023-06-26T07:47:36;28.95;54.16
69335;SHT31;56477;52.742;15.242;2023-06-26T07:50:02;29.43;53.21
69335;SHT31;56477;52.742;15.242;2023-06-26T07:52:28;29.51;52.76
69335;SHT31;56477;52.742;15.242;2023-06-26T07:54:56;29.72;50.89
69335;SHT31;56477;52.742;15.242;2023-06-26T07:57:22;30.28;51.58
69335;SHT31;56477;52.742;15.242;2023-06-26T07:59:48;30.61;49.32
69335;SHT31;56477;52.742;15.242;2023-06-26T08:02:14;30.53;50.13
69335;SHT31;56477;52.742;15.242;2023-06-26T08:04:40;30.60;49.44
69335;SHT31;56477;52.742;15.242;2023-06-26T08:07:06;31.32;48.95
69335;SHT31;56477;52.742;15.242;2023-06-26T08:09:32;31.53;46.54
69335;SHT31;56477;52.742;15.242;2023-06-26T08:11:58;30.91;48.14
69335;SHT31;56477;52.742;15.242;2023-06-26T08:14:24;30.70;48.84
69335;SHT31;56477;52.742;15.242;2023-06-26T08:16:50;31.38;48.77
69335;SHT31;56477;52.742;15.242;2023-06-26T08:19:17;31.19;48.46
69335;SHT31;56477;52.742;15.242;2023-06-26T08:21:43;31.15;49.25
69335;SHT31;56477;52.742;15.242;2023-06-26T08:24:09;31.07;47.67
69335;SHT31;56477;52.742;15.242;2023-06-26T08:26:36;30.77;49.74
69335;SHT31;56477;52.742;15.242;2023-06-26T08:29:02;30.97;48.50
69335;SHT31;56477;52.742;15.242;2023-06-26T08:31:34;30.40;49.95
69335;SHT31;56477;52.742;15.242;2023-06-26T08:34:01;30.90;48.91
69335;SHT31;56477;52.742;15.242;2023-06-26T08:36:27;30.74;49.18
69335;SHT31;56477;52.742;15.242;2023-06-26T08:38:53;30.01;49.99
69335;SHT31;56477;52.742;15.242;2023-06-26T08:41:19;30.32;50.92
69335;SHT31;56477;52.742;15.242;2023-06-26T08:43:45;30.95;48.33
69335;SHT31;56477;52.742;15.242;2023-06-26T08:46:11;30.90;48.82
69335;SHT31;56477;52.742;15.242;2023-06-26T08:48:37;30.63;50.41
69335;SHT31;56477;52.742;15.242;2023-06-26T08:51:12;31.04;49.47
69335;SHT31;56477;52.742;15.242;2023-06-26T08:56:24;31.08;49.64
69335;SHT31;56477;52.742;15.242;2023-06-26T08:58:52;31.31;48.77
69335;SHT31;56477;52.742;15.242;2023-06-26T09:01:18;31.18;48.73
69335;SHT31;56477;52.742;15.242;2023-06-26T09:03:44;30.35;50.28
69335;SHT31;56477;52.742;15.242;2023-06-26T09:06:11;30.22;50.00
69335;SHT31;56477;52.742;15.242;2023-06-26T09:08:36;31.01;49.61
69335;SHT31;56477;52.742;15.242;2023-06-26T09:11:02;31.52;48.04
69335;SHT31;56477;52.742;15.242;2023-06-26T09:13:29;31.94;46.98
69335;SHT31;56477;52.742;15.242;2023-06-26T09:15:56;31.62;47.84
69335;SHT31;56477;52.742;15.242;2023-06-26T09:18:22;31.63;47.49
69335;SHT31;56477;52.742;15.242;2023-06-26T09:20:48;31.17;47.14
69335;SHT31;56477;52.742;15.242;2023-06-26T09:23:14;31.18;47.17
69335;SHT31;56477;52.742;15.242;2023-06-26T09:25:40;30.56;48.11
69335;SHT31;56477;52.742;15.242;2023-06-26T09:28:08;30.33;49.35
69335;SHT31;56477;52.742;15.242;2023-06-26T09:30:34;30.67;48.15
69335;SHT31;56477;52.742;15.242;2023-06-26T09:33:18;30.22;49.86
69335;SHT31;56477;52.742;15.242;2023-06-26T09:35:45;30.39;48.57
69335;SHT31;56477;52.742;15.242;2023-06-26T09:38:14;30.33;48.97
69335;SHT31;56477;52.742;15.242;2023-06-26T09:40:44;29.93;49.70
69335;SHT31;56477;52.742;15.242;2023-06-26T09:43:13;31.10;49.24
69335;SHT31;56477;52.742;15.242;2023-06-26T09:45:39;30.56;48.72
69335;SHT31;56477;52.742;15.242;2023-06-26T09:48:06;29.60;51.47
69335;SHT31;56477;52.742;15.242;2023-06-26T09:50:34;29.43;51.19
69335;SHT31;56477;52.742;15.242;2023-06-26T09:53:13;29.92;51.64
69335;SHT31;56477;52.742;15.242;2023-06-26T09:55:40;29.61;50.02
69335;SHT31;56477;52.742;15.242;2023-06-26T09:58:12;29.44;52.14
69335;SHT31;56477;52.742;15.242;2023-06-26T10:00:41;30.52;49.08
69335;SHT31;56477;52.742;15.242;2023-06-26T10:03:08;31.15;48.85
69335;SHT31;56477;52.742;15.242;2023-06-26T10:05:34;30.78;49.00
69335;SHT31;56477;52.742;15.242;2023-06-26T10:08:01;30.02;50.23
69335;SHT31;56477;52.742;15.242;2023-06-26T10:10:29;29.60;51.06
69335;SHT31;56477;52.742;15.242;2023-06-26T10:13:06;30.13;48.68
69335;SHT31;56477;52.742;15.242;2023-06-26T10:15:36;30.09;48.74
69335;SHT31;56477;52.742;15.242;2023-06-26T10:18:02;30.19;49.01
69335;SHT31;56477;52.742;15.242;2023-06-26T10:20:29;30.42;49.72
69335;SHT31;56477;52.742;15.242;2023-06-26T10:22:57;30.66;49.45
69335;SHT31;56477;52.742;15.242;2023-06-26T10:25:26;30.94;47.74
69335;SHT31;56477;52.742;15.242;2023-06-26T10:27:58;31.43;47.10
69335;SHT31;56477;52.742;15.242;2023-06-26T10:30:27;31.41;47.55
69335;SHT31;56477;52.742;15.242;2023-06-26T10:32:54;31.70;48.52
69335;SHT31;56477;52.742;15.242;2023-06-26T10:35:22;31.67;47.13
69335;SHT31;56477;52.742;15.242;2023-06-26T10:37:50;31.70;47.01
69335;SHT31;56477;52.742;15.242;2023-06-26T10:40:26;31.66;46.99
69335;SHT31;56477;52.742;15.242;2023-06-26T10:43:05;31.94;47.12
69335;SHT31;56477;52.742;15.242;2023-06-26T10:45:43;32.19;46.41
69335;SHT31;56477;52.742;15.242;2023-06-26T10:48:09;32.41;46.71
69335;SHT31;56477;52.742;15.242;2023-06-26T10:50:35;32.30;45.71
69335;SHT31;56477;52.742;15.242;2023-06-26T10:53:11;32.60;46.08
69335;SHT31;56477;52.742;15.242;2023-06-26T10:55:51;32.21;46.94
69335;SHT31;56477;52.742;15.242;2023-06-26T11:03:38;32.06;46.56
69335;SHT31;56477;52.742;15.242;2023-06-26T11:08:47;31.46;45.96
69335;SHT31;56477;52.742;15.242;2023-06-26T11:11:13;31.58;46.53
69335;SHT31;56477;52.742;15.242;2023-06-26T11:13:39;31.93;45.61
69335;SHT31;56477;52.742;15.242;2023-06-26T11:16:06;31.43;46.71
69335;SHT31;56477;52.742;15.242;2023-06-26T11:18:32;31.42;47.51
69335;SHT31;56477;52.742;15.242;2023-06-26T11:21:12;31.58;47.38
69335;SHT31;56477;52.742;15.242;2023-06-26T11:23:40;31.49;46.82
69335;SHT31;56477;52.742;15.242;2023-06-26T11:26:16;31.72;47.48
69335;SHT31;56477;52.742;15.242;2023-06-26T11:28:56;31.82;47.26
69335;SHT31;56477;52.742;15.242;2023-06-26T11:31:36;31.92;46.78
69335;SHT31;56477;52.742;15.242;2023-06-26T11:34:05;31.22;46.95
69335;SHT31;56477;52.742;15.242;2023-06-26T11:36:33;31.58;47.38
69335;SHT31;56477;52.742;15.242;2023-06-26T11:39:06;31.27;47.20
69335;SHT31;56477;52.742;15.242;2023-06-26T11:41:33;31.77;46.32
69335;SHT31;56477;52.742;15.242;2023-06-26T11:44:07;31.96;46.06
69335;SHT31;56477;52.742;15.242;2023-06-26T11:46:34;31.56;45.02
69335;SHT31;56477;52.742;15.242;2023-06-26T11:49:03;31.59;46.26
69335;SHT31;56477;52.742;15.242;2023-06-26T11:51:30;31.62;46.80
69335;SHT31;56477;52.742;15.242;2023-06-26T11:53:56;32.16;46.73
69335;SHT31;56477;52.742;15.242;2023-06-26T11:56:22;32.21;45.02
69335;SHT31;56477;52.742;15.242;2023-06-26T11:59:07;31.86;46.68
69335;SHT31;56477;52.742;15.242;2023-06-26T12:01:43;31.89;43.80
69335;SHT31;56477;52.742;15.242;2023-06-26T12:04:17;31.94;45.99
69335;SHT31;56477;52.742;15.242;2023-06-26T12:06:46;32.60;44.95
69335;SHT31;56477;52.742;15.242;2023-06-26T12:09:13;32.54;43.18
69335;SHT31;56477;52.742;15.242;2023-06-26T12:11:42;32.40;44.86
69335;SHT31;56477;52.742;15.242;2023-06-26T12:14:09;32.86;44.09
69335;SHT31;56477;52.742;15.242;2023-06-26T12:16:36;32.55;44.25
69335;SHT31;56477;52.742;15.242;2023-06-26T12:19:03;31.87;43.45
69335;SHT31;56477;52.742;15.242;2023-06-26T12:24:00;32.20;43.40
69335;SHT31;56477;52.742;15.242;2023-06-26T12:26:27;32.33;43.02
69335;SHT31;56477;52.742;15.242;2023-06-26T12:29:04;32.86;44.16
69335;SHT31;56477;52.742;15.242;2023-06-26T12:31:31;32.79;43.15
69335;SHT31;56477;52.742;15.242;2023-06-26T12:33:57;32.47;43.40
69335;SHT31;56477;52.742;15.242;2023-06-26T12:36:23;32.82;44.16
69335;SHT31;56477;52.742;15.242;2023-06-26T12:38:49;32.14;44.35
69335;SHT31;56477;52.742;15.242;2023-06-26T12:41:15;32.91;42.46
69335;SHT31;56477;52.742;15.242;2023-06-26T12:43:42;32.35;43.73
69335;SHT31;56477;52.742;15.242;2023-06-26T12:46:08;32.04;44.97
69335;SHT31;56477;52.742;15.242;2023-06-26T12:48:44;32.28;45.39
69335;SHT31;56477;52.742;15.242;2023-06-26T12:51:13;31.98;44.15
69335;SHT31;56477;52.742;15.242;2023-06-26T12:53:40;31.94;43.73
69335;SHT31;56477;52.742;15.242;2023-06-26T12:56:07;31.49;44.86
69335;SHT31;56477;52.742;15.242;2023-06-26T12:58:34;31.55;44.69
69335;SHT31;56477;52.742;15.242;2023-06-26T13:01:04;31.12;45.42
69335;SHT31;56477;52.742;15.242;2023-06-26T13:03:31;31.08;46.65
69335;SHT31;56477;52.742;15.242;2023-06-26T13:05:57;31.12;46.69
69335;SHT31;56477;52.742;15.242;2023-06-26T13:08:23;31.10;46.70
69335;SHT31;56477;52.742;15.242;2023-06-26T13:10:49;31.38;46.68
69335;SHT31;56477;52.742;15.242;2023-06-26T13:13:15;31.42;45.45
69335;SHT31;56477;52.742;15.242;2023-06-26T13:15:41;31.28;45.42
69335;SHT31;56477;52.742;15.242;2023-06-26T13:18:07;31.02;47.05
69335;SHT31;56477;52.742;15.242;2023-06-26T13:20:33;31.31;45.18
69335;SHT31;56477;52.742;15.242;2023-06-26T13:22:59;31.17;46.37
69335;SHT31;56477;52.742;15.242;2023-06-26T13:25:25;31.53;46.24
69335;SHT31;56477;52.742;15.242;2023-06-26T13:27:50;31.48;45.02
69335;SHT31;56477;52.742;15.242;2023-06-26T13:30:17;31.94;46.02
69335;SHT31;56477;52.742;15.242;2023-06-26T13:32:43;32.07;44.57
69335;SHT31;56477;52.742;15.242;2023-06-26T13:35:09;31.70;43.59
69335;SHT31;56477;52.742;15.242;2023-06-26T13:37:35;32.03;44.17
69335;SHT31;56477;52.742;15.242;2023-06-26T13:40:02;31.98;45.60
69335;SHT31;56477;52.742;15.242;2023-06-26T13:42:29;31.63;44.57
69335;SHT31;56477;52.742;15.242;2023-06-26T13:44:55;31.39;44.85
69335;SHT31;56477;52.742;15.242;2023-06-26T13:47:21;31.10;44.94
69335;SHT31;56477;52.742;15.242;2023-06-26T13:49:47;30.57;46.00
69335;SHT31;56477;52.742;15.242;2023-06-26T13:52:13;30.67;46.72
69335;SHT31;56477;52.742;15.242;2023-06-26T13:54:39;30.97;45.66
69335;SHT31;56477;52.742;15.242;2023-06-26T13:57:06;31.36;46.09
69335;SHT31;56477;52.742;15.242;2023-06-26T13:59:33;31.49;43.27
69335;SHT31;56477;52.742;15.242;2023-06-26T14:01:59;31.72;43.24
69335;SHT31;56477;52.742;15.242;2023-06-26T14:04:26;31.46;44.03
69335;SHT31;56477;52.742;15.242;2023-06-26T14:06:52;31.02;45.07
69335;SHT31;56477;52.742;15.242;2023-06-26T14:09:18;31.01;44.45
69335;SHT31;56477;52.742;15.242;2023-06-26T14:11:44;31.02;44.29
69335;SHT31;56477;52.742;15.242;2023-06-26T14:14:10;30.73;44.99
69335;SHT31;56477;52.742;15.242;2023-06-26T14:16:36;30.64;45.68
69335;SHT31;56477;52.742;15.242;2023-06-26T14:19:02;30.87;46.59
69335;SHT31;56477;52.742;15.242;2023-06-26T14:21:28;30.84;45.04
69335;SHT31;56477;52.742;15.242;2023-06-26T14:23:55;30.80;46.59
69335;SHT31;56477;52.742;15.242;2023-06-26T14:26:20;30.78;45.57
69335;SHT31;56477;52.742;15.242;2023-06-26T14:28:46;30.69;44.72
69335;SHT31;56477;52.742;15.242;2023-06-26T14:31:13;30.88;45.73
69335;SHT31;56477;52.742;15.242;2023-06-26T14:33:39;30.90;45.53
69335;SHT31;56477;52.742;15.242;2023-06-26T14:36:05;31.06;46.17
69335;SHT31;56477;52.742;15.242;2023-06-26T14:38:32;31.14;46.34
69335;SHT31;56477;52.742;15.242;2023-06-26T14:40:58;31.02;44.28
69335;SHT31;56477;52.742;15.242;2023-06-26T14:43:24;30.88;45.12
69335;SHT31;56477;52.742;15.242;2023-06-26T14:45:50;30.77;45.20
69335;SHT31;56477;52.742;15.242;2023-06-26T14:48:16;30.88;46.47
69335;SHT31;56477;52.742;15.242;2023-06-26T14:50:42;30.92;44.87
69335;SHT31;56477;52.742;15.242;2023-06-26T14:53:08;30.76;45.32
69335;SHT31;56477;52.742;15.242;2023-06-26T14:55:34;30.46;46.48
69335;SHT31;56477;52.742;15.242;2023-06-26T14:57:59;30.32;45.53
69335;SHT31;56477;52.742;15.242;2023-06-26T15:00:25;30.36;46.61
69335;SHT31;56477;52.742;15.242;2023-06-26T15:02:52;30.40;46.95
69335;SHT31;56477;52.742;15.242;2023-06-26T15:05:20;30.49;46.59
69335;SHT31;56477;52.742;15.242;2023-06-26T15:07:47;30.47;46.46
69335;SHT31;56477;52.742;15.242;2023-06-26T15:10:13;30.36;46.54
69335;SHT31;56477;52.742;15.242;2023-06-26T15:12:39;30.46;46.22
69335;SHT31;56477;52.742;15.242;2023-06-26T15:15:06;30.63;45.67
69335;SHT31;56477;52.742;15.242;2023-06-26T15:17:33;30.59;46.66
69335;SHT31;56477;52.742;15.242;2023-06-26T15:19:59;30.56;45.78
69335;SHT31;56477;52.742;15.242;2023-06-26T15:22:26;30.15;46.31
69335;SHT31;56477;52.742;15.242;2023-06-26T15:24:53;30.04;46.72
69335;SHT31;56477;52.742;15.242;2023-06-26T15:27:21;29.89;46.37
69335;SHT31;56477;52.742;15.242;2023-06-26T15:29:47;29.91;47.65
69335;SHT31;56477;52.742;15.242;2023-06-26T15:32:13;29.74;46.37